createdAt,value
2022-12-06T00:01:35.728Z,3.75
2022-12-06T00:04:05.599Z,2.83
2022-12-06T00:06:36.683Z,4.20
2022-12-06T00:09:03.949Z,3.58
2022-12-06T00:11:35.694Z,3.22
2022-12-06T00:14:07.116Z,3.55
2022-12-06T00:16:35.146Z,3.57
2022-12-06T00:19:02.264Z,4.07
2022-12-06T00:21:31.613Z,3.88
2022-12-06T00:24:06.421Z,4.10
2022-12-06T00:26:36.583Z,3.90
2022-12-06T00:29:04.290Z,3.72
2022-12-06T00:31:32.313Z,3.17
2022-12-06T00:33:59.033Z,3.38
2022-12-06T00:36:29.067Z,3.97
2022-12-06T00:38:56.033Z,3.80
2022-12-06T00:41:24.282Z,3.55
2022-12-06T00:43:52.263Z,2.90
2022-12-06T00:46:21.617Z,3.72
2022-12-06T00:48:48.886Z,3.60
2022-12-06T00:51:17.220Z,3.30
2022-12-06T00:53:44.965Z,3.17
2022-12-06T00:56:12.002Z,3.75
2022-12-06T00:58:39.093Z,3.40
2022-12-06T01:01:14.892Z,3.53
2022-12-06T01:03:42.891Z,3.20
2022-12-06T01:06:12.593Z,5.15
2022-12-06T01:08:40.247Z,5.63
2022-12-06T01:11:08.001Z,3.80
2022-12-06T01:13:34.781Z,4.15
2022-12-06T01:16:15.946Z,4.38
2022-12-06T01:18:45.233Z,4.35
2022-12-06T01:21:17.886Z,3.20
2022-12-06T01:23:45.947Z,2.50
2022-12-06T01:26:20.492Z,2.78
2022-12-06T01:28:47.655Z,2.35
2022-12-06T01:31:15.854Z,3.25
2022-12-06T01:33:42.930Z,3.20
2022-12-06T01:36:15.633Z,3.35
2022-12-06T01:38:42.230Z,2.55
2022-12-06T01:41:08.876Z,2.83
2022-12-06T01:43:41.031Z,2.90
2022-12-06T01:46:26.444Z,3.05
2022-12-06T01:49:13.339Z,3.20
2022-12-06T01:52:01.940Z,2.80
2022-12-06T01:54:29.659Z,2.22
2022-12-06T01:56:58.740Z,2.47
2022-12-06T01:59:26.364Z,2.15
2022-12-06T02:01:53.717Z,2.60
2022-12-06T02:04:21.112Z,2.35
2022-12-06T02:06:47.943Z,2.35
2022-12-06T02:09:16.684Z,2.47
2022-12-06T02:11:47.411Z,2.10
2022-12-06T02:14:17.933Z,2.20
2022-12-06T02:17:03.504Z,2.13
2022-12-06T02:19:59.601Z,2.42
2022-12-06T02:22:50.502Z,2.17
2022-12-06T02:25:43.748Z,2.42
2022-12-06T02:28:42.596Z,2.28
2022-12-06T02:31:23.107Z,2.75
2022-12-06T02:33:55.574Z,2.88
2022-12-06T02:36:22.179Z,2.75
2022-12-06T02:38:48.761Z,3.08
2022-12-06T02:41:32.085Z,2.88
2022-12-06T02:44:04.395Z,2.90
2022-12-06T02:49:02.486Z,4.25
2022-12-06T02:51:31.492Z,5.15
2022-12-06T02:54:00.917Z,4.78
2022-12-06T02:56:28.398Z,4.03
2022-12-06T02:58:56.126Z,4.10
2022-12-06T03:01:29.669Z,4.10
2022-12-06T03:03:56.344Z,3.08
2022-12-06T03:06:50.823Z,3.53
2022-12-06T03:09:29.701Z,3.78
2022-12-06T03:12:15.134Z,3.78
2022-12-06T03:15:03.698Z,3.13
2022-12-06T03:17:47.666Z,2.90
2022-12-06T03:20:27.423Z,3.42
2022-12-06T03:23:02.286Z,3.20
2022-12-06T03:25:30.110Z,3.80
2022-12-06T03:27:58.750Z,2.60
2022-12-06T03:30:25.470Z,3.38
2022-12-06T03:32:52.395Z,3.05
2022-12-06T03:35:29.021Z,2.88
2022-12-06T03:38:23.255Z,2.95
2022-12-06T03:40:53.396Z,3.17
2022-12-06T03:43:20.195Z,3.33
2022-12-06T03:45:59.446Z,3.20
2022-12-06T03:48:38.089Z,3.30
2022-12-06T03:51:08.880Z,2.78
2022-12-06T03:53:35.638Z,3.22
2022-12-06T03:56:02.320Z,2.88
2022-12-06T03:58:29.028Z,2.85
2022-12-06T04:00:55.733Z,3.60
2022-12-06T04:03:22.527Z,3.13
2022-12-06T04:05:49.244Z,3.67
2022-12-06T04:08:15.993Z,3.08
2022-12-06T04:10:42.697Z,3.33
2022-12-06T04:13:09.473Z,3.30
2022-12-06T04:15:38.627Z,3.38
2022-12-06T04:18:18.483Z,3.28
2022-12-06T04:21:23.239Z,3.38
2022-12-06T04:23:51.959Z,3.20
2022-12-06T04:26:21.605Z,3.33
2022-12-06T04:29:08.008Z,10.43
2022-12-06T04:31:54.048Z,5.18
2022-12-06T04:34:39.791Z,6.13
2022-12-06T04:37:25.471Z,8.85
2022-12-06T04:39:52.233Z,4.03
2022-12-06T04:42:38.042Z,4.72
2022-12-06T04:45:06.035Z,3.33
2022-12-06T04:47:32.870Z,3.72
2022-12-06T04:49:59.800Z,3.72
2022-12-06T04:52:30.137Z,4.57
2022-12-06T04:54:59.411Z,4.60
2022-12-06T04:57:26.035Z,5.00
2022-12-06T04:59:52.723Z,4.63
2022-12-06T05:02:19.325Z,4.70
2022-12-06T05:04:45.948Z,4.25
2022-12-06T05:07:12.692Z,5.28
2022-12-06T05:09:39.478Z,5.53
2022-12-06T05:12:06.418Z,4.97
2022-12-06T05:14:33.127Z,3.40
2022-12-06T05:16:59.795Z,3.78
2022-12-06T05:19:27.233Z,3.67
2022-12-06T05:21:53.879Z,4.22
2022-12-06T05:24:20.556Z,4.00
2022-12-06T05:26:47.144Z,4.35
2022-12-06T05:29:13.776Z,4.22
2022-12-06T05:31:40.427Z,3.92
2022-12-06T05:34:07.087Z,3.78
2022-12-06T05:36:33.764Z,4.32
2022-12-06T05:39:00.542Z,4.20
2022-12-06T05:41:27.265Z,4.18
2022-12-06T05:43:53.940Z,4.10
2022-12-06T05:46:20.749Z,3.33
2022-12-06T05:48:47.618Z,4.57
2022-12-06T05:51:14.577Z,5.03
2022-12-06T05:53:41.466Z,14.68
2022-12-06T05:56:11.055Z,18.30
2022-12-06T05:58:37.875Z,19.42
2022-12-06T06:01:06.600Z,17.23
2022-12-06T06:03:33.786Z,12.00
2022-12-06T06:06:01.547Z,9.80
2022-12-06T06:08:29.639Z,5.75
2022-12-06T06:10:57.319Z,4.28
2022-12-06T06:13:24.179Z,3.42
2022-12-06T06:15:50.918Z,3.63
2022-12-06T06:18:18.629Z,3.97
2022-12-06T06:20:52.980Z,3.47
2022-12-06T06:23:21.130Z,4.85
2022-12-06T06:25:48.462Z,4.53
2022-12-06T06:28:15.618Z,4.68
2022-12-06T06:30:42.749Z,5.80
2022-12-06T06:33:09.920Z,4.72
2022-12-06T06:35:37.973Z,4.55
2022-12-06T06:38:04.639Z,5.28
2022-12-06T06:40:31.387Z,14.00
2022-12-06T06:42:58.184Z,6.20
2022-12-06T06:45:28.577Z,5.40
2022-12-06T06:47:55.800Z,5.03
2022-12-06T06:50:22.467Z,5.45
2022-12-06T06:52:49.117Z,5.63
2022-12-06T06:55:15.933Z,4.47
2022-12-06T06:57:42.590Z,5.70
2022-12-06T07:00:09.825Z,5.70
2022-12-06T07:02:39.468Z,5.88
2022-12-06T07:05:06.850Z,10.70
2022-12-06T07:07:33.638Z,9.05
2022-12-06T07:10:00.955Z,9.98
2022-12-06T07:12:27.749Z,8.98
2022-12-06T07:14:54.480Z,5.43
2022-12-06T07:17:21.107Z,5.07
2022-12-06T07:19:47.875Z,5.63
2022-12-06T07:22:14.515Z,6.25
2022-12-06T07:24:42.960Z,5.45
2022-12-06T07:27:12.356Z,5.18
2022-12-06T07:29:38.996Z,5.35
2022-12-06T07:32:05.857Z,5.93
2022-12-06T07:34:33.299Z,6.40
2022-12-06T07:36:59.941Z,6.63
2022-12-06T07:39:26.688Z,7.80
2022-12-06T07:42:11.888Z,6.78
2022-12-06T07:45:01.652Z,7.50
2022-12-06T07:47:37.224Z,8.90
2022-12-06T07:50:06.866Z,7.75
2022-12-06T07:52:34.650Z,8.20
2022-12-06T07:55:01.649Z,9.70
2022-12-06T07:57:28.419Z,9.07
2022-12-06T07:59:55.746Z,10.13
2022-12-06T08:02:25.757Z,10.00
2022-12-06T08:04:53.280Z,11.68
2022-12-06T08:07:21.576Z,10.63
2022-12-06T08:09:48.553Z,10.85
2022-12-06T08:12:15.524Z,11.60
2022-12-06T08:14:42.173Z,14.65
2022-12-06T08:17:08.962Z,12.65
2022-12-06T08:19:35.613Z,12.18
2022-12-06T08:22:02.372Z,13.10
2022-12-06T08:24:29.033Z,14.23
2022-12-06T08:26:55.787Z,15.57
2022-12-06T08:29:22.898Z,15.18
2022-12-06T08:31:49.770Z,15.13
2022-12-06T08:34:16.994Z,17.65
2022-12-06T08:36:43.692Z,16.95
2022-12-06T08:39:12.490Z,17.02
2022-12-06T08:42:14.520Z,16.85
2022-12-06T08:44:41.138Z,14.23
2022-12-06T08:47:07.766Z,15.38
2022-12-06T08:49:34.471Z,16.08
2022-12-06T08:52:01.251Z,15.63
2022-12-06T08:54:28.679Z,16.42
2022-12-06T08:56:55.821Z,16.05
2022-12-06T08:59:23.137Z,14.95
2022-12-06T09:01:49.859Z,15.18
2022-12-06T09:04:16.778Z,14.82
2022-12-06T09:06:44.924Z,16.15
2022-12-06T09:09:13.429Z,15.88
2022-12-06T09:11:40.741Z,16.63
2022-12-06T09:14:09.221Z,19.30
2022-12-06T09:16:36.181Z,18.27
2022-12-06T09:19:03.278Z,16.60
2022-12-06T09:21:30.651Z,17.73
2022-12-06T09:23:58.318Z,17.23
2022-12-06T09:26:25.745Z,17.45
2022-12-06T09:28:54.855Z,17.38
2022-12-06T09:31:21.992Z,17.92
2022-12-06T09:33:48.814Z,17.23
2022-12-06T09:36:25.311Z,17.35
2022-12-06T09:38:57.049Z,20.50
2022-12-06T09:41:52.729Z,22.83
2022-12-06T09:45:01.072Z,18.90
2022-12-06T09:47:42.558Z,27.50
2022-12-06T09:50:36.526Z,28.90
2022-12-06T09:53:27.533Z,28.05
2022-12-06T09:56:24.561Z,29.30
2022-12-06T09:59:19.789Z,30.77
2022-12-06T10:01:58.408Z,25.25
2022-12-06T10:04:46.784Z,33.80
2022-12-06T10:07:16.454Z,40.63
2022-12-06T10:09:55.532Z,61.50
2022-12-06T10:12:42.310Z,62.13
2022-12-06T10:15:14.924Z,82.80
2022-12-06T10:17:52.595Z,46.95
2022-12-06T10:21:00.536Z,42.28
2022-12-06T10:23:50.049Z,63.72
2022-12-06T10:26:47.997Z,57.70
2022-12-06T10:29:40.406Z,40.08
2022-12-06T10:32:23.640Z,21.58
2022-12-06T10:35:18.241Z,23.40
2022-12-06T10:37:53.882Z,38.53
2022-12-06T10:40:41.840Z,25.88
2022-12-06T10:43:21.983Z,23.63
2022-12-06T10:46:43.416Z,18.02
2022-12-06T10:49:15.741Z,17.33
2022-12-06T10:51:59.085Z,14.55
2022-12-06T10:54:29.917Z,11.40
2022-12-06T10:57:02.152Z,13.85
2022-12-06T10:59:51.711Z,10.88
2022-12-06T11:02:31.237Z,20.88
2022-12-06T11:05:02.933Z,12.73
2022-12-06T11:07:43.283Z,16.70
2022-12-06T11:10:26.878Z,8.20
2022-12-06T11:13:28.792Z,7.22
2022-12-06T11:16:00.530Z,6.53
2022-12-06T11:18:29.399Z,7.72
2022-12-06T11:21:06.252Z,8.05
2022-12-06T11:24:00.826Z,6.60
2022-12-06T11:26:52.356Z,7.05
2022-12-06T11:29:19.302Z,6.75
2022-12-06T11:32:02.522Z,8.27
2022-12-06T11:34:36.344Z,9.73
2022-12-06T11:37:04.173Z,9.48
2022-12-06T11:39:31.714Z,7.30
2022-12-06T11:42:01.564Z,5.05
2022-12-06T11:44:38.467Z,5.78
2022-12-06T11:47:06.717Z,5.25
2022-12-06T11:49:42.054Z,4.40
2022-12-06T11:52:34.069Z,9.68
2022-12-06T11:55:05.580Z,8.98
2022-12-06T11:57:38.369Z,6.10
2022-12-06T12:00:11.189Z,5.00
2022-12-06T12:02:38.108Z,6.90
2022-12-06T12:05:35.124Z,7.90
2022-12-06T12:08:06.659Z,5.20
2022-12-06T12:10:36.177Z,5.28
2022-12-06T12:13:37.947Z,5.72
2022-12-06T12:16:36.310Z,6.53
2022-12-06T12:19:25.112Z,7.50
2022-12-06T12:21:54.632Z,5.70
2022-12-06T12:25:17.839Z,6.38
2022-12-06T12:27:44.961Z,6.22
2022-12-06T12:30:51.533Z,6.95
2022-12-06T12:33:19.974Z,6.68
2022-12-06T12:35:50.097Z,7.65
2022-12-06T12:38:31.641Z,6.78
2022-12-06T12:41:27.584Z,7.07
2022-12-06T12:46:56.168Z,8.60
2022-12-06T12:49:38.957Z,12.00
2022-12-06T12:52:30.710Z,13.30
2022-12-06T12:55:12.714Z,15.00
2022-12-06T12:57:40.804Z,16.77
2022-12-06T13:00:15.520Z,21.98
2022-12-06T13:02:43.950Z,13.43
2022-12-06T13:05:33.269Z,14.68
2022-12-06T13:08:09.575Z,19.80
2022-12-06T13:10:39.422Z,12.75
2022-12-06T13:13:14.632Z,9.25
2022-12-06T13:15:47.257Z,12.05
2022-12-06T13:18:21.177Z,9.13
2022-12-06T13:20:49.524Z,7.75
2022-12-06T13:23:19.716Z,10.38
2022-12-06T13:26:15.517Z,9.75
2022-12-06T13:28:46.948Z,8.98
2022-12-06T13:31:19.051Z,9.20
2022-12-06T13:33:51.328Z,9.35
2022-12-06T13:36:19.289Z,8.85
2022-12-06T13:38:46.172Z,8.68
2022-12-06T13:41:14.909Z,7.15
2022-12-06T13:43:48.891Z,7.57
2022-12-06T13:46:26.324Z,5.93
2022-12-06T13:48:55.836Z,5.75
2022-12-06T13:51:32.417Z,5.38
2022-12-06T13:54:19.285Z,6.38
2022-12-06T13:56:46.160Z,6.68
2022-12-06T13:59:12.906Z,6.25
2022-12-06T14:01:49.346Z,5.75
2022-12-06T14:06:57.937Z,8.85
2022-12-06T14:09:28.760Z,9.85
2022-12-06T14:12:00.406Z,6.45
2022-12-06T14:14:27.129Z,6.70
2022-12-06T14:17:10.564Z,8.85
2022-12-06T14:19:49.507Z,8.00
2022-12-06T14:22:23.488Z,6.35
2022-12-06T14:25:16.976Z,5.30
2022-12-06T14:27:48.306Z,7.68
2022-12-06T14:30:26.232Z,6.63
2022-12-06T14:32:55.878Z,8.27
2022-12-06T14:35:35.963Z,8.82
2022-12-06T14:38:16.470Z,6.60
2022-12-06T14:41:02.826Z,6.43
2022-12-06T14:43:32.957Z,6.03
2022-12-06T14:46:02.583Z,6.10
2022-12-06T14:48:51.813Z,9.05
2022-12-06T14:51:23.483Z,7.25
2022-12-06T14:53:50.781Z,6.28
2022-12-06T14:56:34.274Z,6.10
2022-12-06T14:59:09.170Z,5.53
2022-12-06T15:01:49.513Z,5.13
2022-12-06T15:04:35.328Z,5.47
2022-12-06T15:07:02.434Z,4.85
2022-12-06T15:09:30.796Z,4.55
2022-12-06T15:12:39.176Z,4.13
2022-12-06T15:15:06.011Z,4.90
2022-12-06T15:17:32.783Z,5.40
2022-12-06T15:19:59.899Z,5.10
2022-12-06T15:22:28.986Z,5.18
2022-12-06T15:25:00.091Z,7.03
2022-12-06T15:27:27.888Z,6.70
2022-12-06T15:29:54.598Z,6.93
2022-12-06T15:32:24.579Z,6.53
2022-12-06T15:34:51.307Z,6.63
2022-12-06T15:40:05.104Z,9.10
2022-12-06T15:42:31.878Z,8.65
2022-12-06T15:44:58.596Z,8.73
2022-12-06T15:47:25.338Z,7.32
2022-12-06T15:49:53.875Z,6.85
2022-12-06T15:52:24.735Z,7.85
2022-12-06T15:54:51.766Z,5.07
2022-12-06T15:57:18.487Z,6.55
2022-12-06T15:59:45.459Z,5.80
2022-12-06T16:02:17.415Z,6.97
2022-12-06T16:04:45.457Z,5.88
2022-12-06T16:07:13.442Z,5.25
2022-12-06T16:09:40.246Z,6.95
2022-12-06T16:12:07.215Z,13.57
2022-12-06T16:14:33.919Z,8.95
2022-12-06T16:17:00.546Z,6.75
2022-12-06T16:19:49.964Z,6.07
2022-12-06T16:22:16.627Z,6.18
2022-12-06T16:24:43.314Z,4.80
2022-12-06T16:27:10.288Z,13.27
2022-12-06T16:29:36.915Z,8.82
2022-12-06T16:32:03.594Z,14.20
2022-12-06T16:34:30.295Z,14.98
2022-12-06T16:37:09.265Z,11.00
2022-12-06T16:39:36.263Z,5.85
2022-12-06T16:42:05.838Z,14.05
2022-12-06T16:44:32.613Z,14.98
2022-12-06T16:46:59.558Z,17.58
2022-12-06T16:49:46.720Z,8.52
2022-12-06T16:52:14.805Z,7.40
2022-12-06T16:54:42.180Z,9.43
2022-12-06T16:57:11.283Z,9.38
2022-12-06T16:59:37.972Z,8.88
2022-12-06T17:02:16.069Z,10.80
2022-12-06T17:04:42.753Z,8.60
2022-12-06T17:07:09.380Z,10.80
2022-12-06T17:09:36.060Z,15.98
2022-12-06T17:12:02.849Z,9.50
2022-12-06T17:14:30.265Z,14.05
2022-12-06T17:17:00.027Z,14.60
2022-12-06T17:19:28.203Z,7.43
2022-12-06T17:21:55.372Z,6.82
2022-12-06T17:24:24.359Z,6.25
2022-12-06T17:26:51.307Z,30.27
2022-12-06T17:29:18.060Z,15.98
2022-12-06T17:31:44.764Z,15.15
2022-12-06T17:34:15.660Z,17.95
2022-12-06T17:36:43.275Z,12.73
2022-12-06T17:39:12.849Z,15.95
2022-12-06T17:41:57.987Z,21.15
2022-12-06T17:44:24.745Z,12.65
2022-12-06T17:46:51.420Z,7.90
2022-12-06T17:49:25.746Z,9.40
2022-12-06T17:51:52.668Z,7.07
2022-12-06T17:54:20.050Z,6.53
2022-12-06T17:56:48.956Z,6.20
2022-12-06T17:59:19.374Z,7.03
2022-12-06T18:02:17.417Z,10.63
2022-12-06T18:04:32.848Z,7.55
2022-12-06T18:06:59.518Z,6.63
2022-12-06T18:09:26.234Z,6.30
2022-12-06T18:11:52.925Z,7.97
2022-12-06T18:14:19.569Z,7.53
2022-12-06T18:16:46.661Z,6.03
2022-12-06T18:19:16.275Z,11.07
2022-12-06T18:21:43.234Z,6.15
2022-12-06T18:24:21.565Z,7.10
2022-12-06T18:26:49.734Z,6.55
2022-12-06T18:29:19.416Z,7.18
2022-12-06T18:31:46.684Z,6.78
2022-12-06T18:34:13.873Z,5.47
2022-12-06T18:36:41.173Z,6.93
2022-12-06T18:39:15.025Z,5.78
2022-12-06T18:41:46.029Z,4.90
2022-12-06T18:44:13.380Z,4.13
2022-12-06T18:46:42.321Z,5.15
2022-12-06T18:49:11.065Z,7.93
2022-12-06T18:51:38.752Z,6.85
2022-12-06T18:54:06.695Z,6.53
2022-12-06T18:56:34.658Z,8.38
2022-12-06T18:59:03.887Z,11.52
2022-12-06T19:01:33.845Z,9.35
2022-12-06T19:04:03.344Z,8.07
2022-12-06T19:06:35.659Z,8.68
2022-12-06T19:09:06.394Z,4.45
2022-12-06T19:11:37.070Z,6.00
2022-12-06T19:14:04.975Z,5.75
2022-12-06T19:16:39.468Z,7.68
2022-12-06T19:19:15.455Z,7.38
2022-12-06T19:21:43.836Z,7.07
2022-12-06T19:24:12.598Z,6.43
2022-12-06T19:26:39.722Z,7.13
2022-12-06T19:29:06.360Z,8.13
2022-12-06T19:31:33.340Z,6.82
2022-12-06T19:34:00.253Z,6.90
2022-12-06T19:36:29.472Z,5.82
2022-12-06T19:38:57.126Z,7.28
2022-12-06T19:41:24.133Z,7.22
2022-12-06T19:44:09.863Z,5.32
2022-12-06T19:46:37.229Z,7.05
2022-12-06T19:49:06.104Z,6.65
2022-12-06T19:51:35.754Z,7.85
2022-12-06T19:54:02.935Z,9.65
2022-12-06T19:56:29.605Z,8.60
2022-12-06T19:58:57.706Z,9.35
2022-12-06T20:01:26.239Z,7.85
2022-12-06T20:03:54.420Z,8.00
2022-12-06T20:06:23.622Z,7.35
2022-12-06T20:08:51.872Z,10.38
2022-12-06T20:11:39.692Z,7.53
2022-12-06T20:14:09.591Z,6.65
2022-12-06T20:16:37.074Z,7.20
2022-12-06T20:19:05.513Z,9.02
2022-12-06T20:21:32.430Z,10.45
2022-12-06T20:24:00.172Z,9.18
2022-12-06T20:26:31.704Z,7.85
2022-12-06T20:28:58.737Z,7.30
2022-12-06T20:31:28.083Z,6.40
2022-12-06T20:34:00.092Z,8.25
2022-12-06T20:36:28.250Z,8.93
2022-12-06T20:38:56.131Z,9.85
2022-12-06T20:41:25.717Z,10.38
2022-12-06T20:43:52.992Z,8.32
2022-12-06T20:46:26.467Z,7.30
2022-12-06T20:48:54.633Z,8.73
2022-12-06T20:51:24.054Z,7.32
2022-12-06T20:53:53.243Z,8.07
2022-12-06T20:56:22.187Z,8.60
2022-12-06T20:58:51.877Z,7.00
2022-12-06T21:01:22.452Z,9.18
2022-12-06T21:03:51.515Z,7.63
2022-12-06T21:06:20.429Z,7.50
2022-12-06T21:08:47.479Z,8.38
2022-12-06T21:11:22.692Z,11.27
2022-12-06T21:13:54.029Z,9.90
2022-12-06T21:16:23.728Z,9.00
2022-12-06T21:18:55.247Z,11.77
2022-12-06T21:21:27.691Z,11.83
2022-12-06T21:23:54.572Z,14.68
2022-12-06T21:26:21.374Z,9.65
2022-12-06T21:28:48.342Z,10.32
2022-12-06T21:31:15.254Z,11.25
2022-12-06T21:33:42.101Z,10.65
2022-12-06T21:36:10.190Z,9.68
2022-12-06T21:38:36.950Z,8.90
2022-12-06T21:41:06.056Z,11.30
2022-12-06T21:43:33.721Z,10.45
2022-12-06T21:46:09.057Z,12.25
2022-12-06T21:48:36.090Z,12.70
2022-12-06T21:51:08.848Z,11.40
2022-12-06T21:53:36.906Z,14.93
2022-12-06T21:56:14.130Z,14.10
2022-12-06T21:58:40.865Z,12.75
2022-12-06T22:01:10.095Z,11.10
2022-12-06T22:03:37.506Z,10.13
2022-12-06T22:06:09.370Z,9.30
2022-12-06T22:08:36.901Z,10.18
2022-12-06T22:11:08.341Z,9.95
2022-12-06T22:13:35.203Z,9.83
2022-12-06T22:16:06.810Z,9.80
2022-12-06T22:18:34.460Z,13.55
2022-12-06T22:21:04.821Z,10.88
2022-12-06T22:23:32.667Z,10.25
2022-12-06T22:26:00.123Z,10.23
2022-12-06T22:28:27.175Z,10.25
2022-12-06T22:30:53.926Z,9.45
2022-12-06T22:33:20.709Z,9.10
2022-12-06T22:35:47.328Z,9.27
2022-12-06T22:38:13.937Z,8.77
2022-12-06T22:52:35.766Z,8.90
2022-12-06T22:55:02.382Z,9.88
2022-12-06T22:57:29.042Z,10.20
2022-12-06T22:59:55.870Z,9.13
2022-12-06T23:02:22.573Z,9.70
2022-12-06T23:04:49.255Z,10.35
2022-12-06T23:07:15.912Z,10.40
2022-12-06T23:09:42.525Z,10.43
2022-12-06T23:12:09.176Z,10.18
2022-12-06T23:14:36.092Z,9.13
2022-12-06T23:17:02.731Z,9.52
2022-12-06T23:19:29.393Z,9.95
2022-12-06T23:21:56.023Z,9.88
2022-12-06T23:24:22.658Z,14.02
2022-12-06T23:26:54.522Z,9.65
2022-12-06T23:29:24.264Z,9.70
2022-12-06T23:31:50.999Z,10.02
2022-12-06T23:34:23.120Z,10.35
2022-12-06T23:36:50.008Z,9.20
2022-12-06T23:39:16.950Z,9.80
2022-12-06T23:41:43.843Z,9.35
2022-12-06T23:44:11.982Z,9.65
2022-12-06T23:46:39.758Z,8.95
2022-12-06T23:49:07.447Z,8.77
2022-12-06T23:51:36.749Z,9.23
2022-12-06T23:54:06.152Z,9.27
2022-12-06T23:56:37.188Z,9.68
2022-12-06T23:59:06.506Z,10.27
